Time;durP1;ratioP1;P1;durP2;ratioP2;P2;SDS_P1;SDS_P2;PMS_P1;PMS_P2;Temp;Humidity;BMP_temperature;BMP_pressure;BME280_temperature;BME280_humidity;BME280_pressure;Samples;Min_cycle;Max_cycle;Signal;HPM_P1;HPM_P2
2022/07/27 00:06:59;;;;;;;2.10;0.93;;;18.50;99.90;;;;;;20597993;28;20448;-76
2022/07/27 00:17:00;;;;;;;1.37;0.90;;;18.30;99.90;;;;;;20583314;28;20038;-75
2022/07/27 00:27:01;;;;;;;3.70;0.83;;;17.60;99.90;;;;;;20582548;28;20026;-75
2022/07/27 00:37:02;;;;;;;2.83;1.10;;;17.40;99.90;;;;;;20584086;28;20054;-75
2022/07/27 00:47:03;;;;;;;2.40;0.80;;;17.20;99.90;;;;;;20599284;28;20046;-75
2022/07/27 00:57:05;;;;;;;3.87;0.90;;;17.10;99.90;;;;;;20597209;28;20089;-76
2022/07/27 01:07:06;;;;;;;2.57;1.40;;;17.20;99.90;;;;;;20595174;28;20042;-76
2022/07/27 01:17:07;;;;;;;4.20;1.45;;;17.60;99.90;;;;;;20594116;28;20274;-76
2022/07/27 01:27:08;;;;;;;3.30;1.27;;;17.70;99.90;;;;;;20595282;28;20034;-75
2022/07/27 01:37:09;;;;;;;4.03;1.30;;;17.70;99.90;;;;;;20594047;28;20058;-76
2022/07/27 01:47:09;;;;;;;5.87;1.37;;;17.90;99.90;;;;;;20595955;28;20050;-75
2022/07/27 01:57:10;;;;;;;4.47;1.37;;;18.00;99.90;;;;;;20597430;28;20038;-75
2022/07/27 02:07:11;;;;;;;5.13;1.33;;;17.90;99.90;;;;;;20604081;28;20109;-76
2022/07/27 02:17:12;;;;;;;1.87;1.33;;;18.00;99.90;;;;;;20590378;28;20413;-76
2022/07/27 02:27:13;;;;;;;2.50;1.33;;;17.90;99.90;;;;;;20591146;28;20052;-75
2022/07/27 02:37:14;;;;;;;9.70;3.17;;;17.70;99.90;;;;;;20590343;28;20397;-75
2022/07/27 02:47:14;;;;;;;3.43;1.40;;;17.80;99.90;;;;;;20589267;28;20061;-75
2022/07/27 02:57:15;;;;;;;1.57;1.00;;;18.00;99.90;;;;;;20587505;28;20031;-75
2022/07/27 03:07:16;;;;;;;4.40;1.40;;;17.70;99.90;;;;;;20588491;28;20402;-74
2022/07/27 03:27:34;;;;;;;4.80;1.33;;;17.50;99.90;;;;;;20940084;28;20069;-80
2022/07/27 03:37:35;;;;;;;3.42;1.65;;;17.20;99.90;;;;;;20940457;28;20044;-80
2022/07/27 03:47:36;;;;;;;2.70;1.37;;;17.00;99.90;;;;;;20941615;28;20072;-79
2022/07/27 03:57:37;;;;;;;3.10;1.37;;;17.00;99.90;;;;;;20936515;28;20057;-79
2022/07/27 04:07:38;;;;;;;3.70;1.70;;;16.60;99.90;;;;;;20942249;28;20055;-81
2022/07/27 04:17:39;;;;;;;2.72;1.63;;;16.50;99.90;;;;;;20943077;28;20028;-79
2022/07/27 04:27:39;;;;;;;3.30;1.40;;;16.50;99.90;;;;;;20931336;28;20568;-82
2022/07/27 04:37:40;;;;;;;2.33;1.37;;;17.00;99.90;;;;;;20929032;28;20068;-79
2022/07/27 04:47:41;;;;;;;5.97;1.40;;;17.30;99.90;;;;;;20931366;28;20052;-78
2022/07/27 04:57:42;;;;;;;3.70;1.40;;;17.40;99.90;;;;;;20930862;28;20033;-79
2022/07/27 05:07:43;;;;;;;1.90;1.30;;;17.60;99.90;;;;;;20931304;28;20040;-81
2022/07/27 05:17:44;;;;;;;3.07;1.10;;;17.80;99.90;;;;;;20930560;28;20033;-81
2022/07/27 05:27:45;;;;;;;9.10;3.00;;;17.80;99.90;;;;;;20932719;28;20114;-82
2022/07/27 05:37:46;;;;;;;1.92;1.30;;;17.80;99.90;;;;;;20948418;28;20041;-80
2022/07/27 05:47:47;;;;;;;4.30;1.60;;;17.90;99.90;;;;;;20945513;28;20059;-80
2022/07/27 05:57:48;;;;;;;3.47;1.80;;;18.60;99.90;;;;;;20922604;28;20036;-81
2022/07/27 06:07:57;;;;;;;2.07;1.60;;;18.80;99.90;;;;;;20939811;28;20367;-80
2022/07/27 06:17:59;;;;;;;3.03;1.58;;;19.30;99.90;;;;;;20946487;28;20032;-80
2022/07/27 06:28:00;;;;;;;3.20;1.20;;;19.80;99.90;;;;;;20940493;28;20021;-79
2022/07/27 06:38:01;;;;;;;4.13;1.30;;;20.00;99.90;;;;;;20938385;28;20088;-82
2022/07/27 06:48:02;;;;;;;2.85;1.42;;;20.40;99.90;;;;;;20943737;28;20389;-80
2022/07/27 06:58:03;;;;;;;5.07;1.20;;;20.60;99.90;;;;;;20935210;28;20506;-80
2022/07/27 07:08:10;;;;;;;3.67;1.55;;;21.20;99.90;;;;;;20929303;28;20025;-83
2022/07/27 07:18:12;;;;;;;3.15;1.52;;;21.40;99.90;;;;;;20936140;28;20036;-82
2022/07/27 07:28:13;;;;;;;7.78;1.60;;;20.80;99.90;;;;;;20938769;28;20121;-81
2022/07/27 07:38:14;;;;;;;5.50;1.30;;;21.40;99.90;;;;;;20929802;28;20025;-80
2022/07/27 07:48:15;;;;;;;4.67;1.40;;;22.20;99.90;;;;;;20929896;28;20024;-80
2022/07/27 07:58:15;;;;;;;4.20;1.30;;;22.50;99.90;;;;;;20932153;28;20035;-81
2022/07/27 08:08:16;;;;;;;5.43;1.53;;;22.00;99.90;;;;;;20928342;28;20028;-81
2022/07/27 08:18:18;;;;;;;4.53;1.60;;;22.20;99.90;;;;;;20911315;28;20028;-80
2022/07/27 08:28:18;;;;;;;2.50;1.70;;;22.80;99.90;;;;;;20908705;28;20032;-81
2022/07/27 08:38:19;;;;;;;5.93;0.90;;;23.80;99.90;;;;;;20913680;28;20410;-80
2022/07/27 08:48:23;;;;;;;1.67;1.08;;;24.40;99.90;;;;;;20927670;28;20041;-81
2022/07/27 08:58:24;;;;;;;4.53;1.15;;;24.80;99.90;;;;;;20964716;28;20036;-80
2022/07/27 09:08:27;;;;;;;1.15;0.80;;;25.20;99.90;;;;;;20959669;28;20032;-81
2022/07/27 09:18:32;;;;;;;4.03;0.90;;;26.20;99.90;;;;;;20943660;28;20025;-81
2022/07/27 09:28:33;;;;;;;3.80;1.23;;;26.20;99.90;;;;;;20942116;28;20123;-79
2022/07/27 09:38:33;;;;;;;1.90;1.02;;;26.20;99.90;;;;;;20946923;28;20060;-80
2022/07/27 09:48:35;;;;;;;4.55;1.17;;;27.00;99.90;;;;;;20925762;28;20051;-82
2022/07/27 09:58:40;;;;;;;2.08;0.90;;;28.60;99.90;;;;;;20941259;28;20033;-80
2022/07/27 10:08:47;;;;;;;1.33;0.77;;;27.10;99.90;;;;;;20937580;28;20056;-79
2022/07/27 10:19:20;;;;;;;2.60;0.90;;;29.20;99.90;;;;;;20938980;28;20035;-81
2022/07/27 10:29:22;;;;;;;3.08;1.10;;;29.60;99.90;;;;;;20937959;28;20058;-80
2022/07/27 10:39:33;;;;;;;3.80;0.98;;;30.10;99.70;;;;;;20913579;28;20028;-80
2022/07/27 10:49:36;;;;;;;3.08;1.25;;;29.10;99.90;;;;;;20930196;28;20037;-80
2022/07/27 10:59:43;;;;;;;3.15;1.20;;;27.10;99.90;;;;;;20931718;28;20044;-79
2022/07/27 11:09:45;;;;;;;3.63;1.52;;;27.00;99.90;;;;;;20928987;28;20039;-79
2022/07/27 11:19:57;;;;;;;2.78;1.20;;;27.40;99.90;;;;;;20924730;28;20095;-80
2022/07/27 11:29:58;;;;;;;3.05;1.00;;;27.60;99.90;;;;;;20926463;28;20055;-79
2022/07/27 11:39:59;;;;;;;4.05;1.25;;;27.10;99.90;;;;;;20926981;28;20029;-80
2022/07/27 11:50:05;;;;;;;1.67;0.95;;;28.10;99.90;;;;;;20927365;28;20741;-80
2022/07/27 12:00:07;;;;;;;3.83;1.27;;;28.20;99.90;;;;;;20929785;28;20035;-80
2022/07/27 12:10:14;;;;;;;1.75;0.90;;;27.10;99.90;;;;;;20928038;28;20059;-80
2022/07/27 12:20:16;;;;;;;5.78;1.05;;;27.40;99.90;;;;;;20927017;28;20108;-81
2022/07/27 12:30:26;;;;;;;3.95;1.30;;;28.30;99.90;;;;;;20939939;28;20043;-79
2022/07/27 12:40:28;;;;;;;3.17;1.13;;;28.50;99.90;;;;;;20937540;28;20443;-80
2022/07/27 12:50:29;;;;;;;5.57;1.00;;;27.80;99.90;;;;;;20937097;28;20429;-80
2022/07/27 13:00:30;;;;;;;3.35;1.10;;;28.20;99.90;;;;;;20941118;28;20178;-81
2022/07/27 13:10:31;;;;;;;4.97;1.17;;;28.90;99.00;;;;;;20954400;28;20039;-81
2022/07/27 13:20:32;;;;;;;4.18;1.13;;;28.20;99.80;;;;;;20916251;28;20032;-79
2022/07/27 13:30:33;;;;;;;1.75;1.05;;;27.80;99.80;;;;;;20937605;28;20106;-80
2022/07/27 13:40:34;;;;;;;3.55;0.88;;;28.70;99.60;;;;;;20935420;28;20033;-81
2022/07/27 13:50:35;;;;;;;4.65;1.13;;;29.10;99.10;;;;;;20935218;28;20036;-80
2022/07/27 14:00:36;;;;;;;3.78;1.35;;;28.80;98.90;;;;;;20934474;28;20037;-80
2022/07/27 14:10:43;;;;;;;3.13;0.95;;;28.70;98.40;;;;;;20932943;28;20082;-80
2022/07/27 14:20:44;;;;;;;3.67;1.08;;;28.20;98.90;;;;;;20931786;28;20052;-80
2022/07/27 14:30:45;;;;;;;2.33;1.00;;;28.90;98.30;;;;;;20932959;28;20053;-80
2022/07/27 14:40:48;;;;;;;2.10;1.23;;;28.20;98.20;;;;;;20912907;28;20056;-80
2022/07/27 14:50:49;;;;;;;1.67;1.10;;;28.20;97.40;;;;;;20928953;28;20124;-82
2022/07/27 15:00:51;;;;;;;3.70;1.00;;;28.50;97.60;;;;;;20913344;28;20105;-81
2022/07/27 15:10:52;;;;;;;3.92;1.20;;;28.80;97.80;;;;;;20901931;28;20029;-81
2022/07/27 15:20:53;;;;;;;1.88;1.00;;;28.80;97.10;;;;;;20934453;28;20028;-81
2022/07/27 15:30:53;;;;;;;3.72;1.00;;;28.50;97.60;;;;;;20929724;28;20477;-80
2022/07/27 15:40:54;;;;;;;2.47;1.05;;;28.10;97.30;;;;;;20927718;28;20477;-80
2022/07/27 15:50:57;;;;;;;2.58;1.30;;;28.20;97.00;;;;;;20929669;28;20037;-81
2022/07/27 16:00:58;;;;;;;2.42;1.13;;;27.80;97.70;;;;;;20908847;28;20056;-80
2022/07/27 16:10:59;;;;;;;2.92;1.30;;;27.60;98.80;;;;;;20905740;28;20033;-80
2022/07/27 16:21:00;;;;;;;3.63;1.02;;;27.10;99.30;;;;;;20907633;28;20112;-80
2022/07/27 16:31:01;;;;;;;5.80;1.00;;;27.10;99.20;;;;;;20913051;28;20035;-83
2022/07/27 16:41:05;;;;;;;5.18;1.25;;;27.40;98.80;;;;;;20945622;28;20067;-81
2022/07/27 16:51:09;;;;;;;1.60;1.00;;;27.40;98.30;;;;;;20967229;28;20024;-82
2022/07/27 17:01:10;;;;;;;1.20;0.80;;;26.80;98.90;;;;;;21008766;28;20509;-80
2022/07/27 17:11:11;;;;;;;4.07;1.35;;;27.10;98.70;;;;;;21002915;28;20082;-81
2022/07/27 17:21:12;;;;;;;1.52;1.00;;;26.90;98.60;;;;;;20990737;28;20117;-81
2022/07/27 17:31:14;;;;;;;9.13;1.42;;;27.00;98.40;;;;;;20924023;28;20687;-82
2022/07/27 17:41:16;;;;;;;4.20;1.10;;;26.30;99.00;;;;;;20853994;28;20398;-82
2022/07/27 17:51:18;;;;;;;3.65;1.15;;;26.40;99.20;;;;;;20895836;28;20509;-83
2022/07/27 18:01:19;;;;;;;8.35;1.50;;;26.00;99.90;;;;;;20940885;28;20045;-83
2022/07/27 18:11:20;;;;;;;4.38;1.30;;;26.30;99.90;;;;;;20937085;28;20029;-81
2022/07/27 18:21:21;;;;;;;;;;;25.80;99.90;;;;;;20939233;28;20033;-82
2022/07/27 18:31:22;;;;;;;6.63;1.50;;;25.20;99.90;;;;;;20918942;28;19908;-82
2022/07/27 18:41:23;;;;;;;1.95;1.10;;;24.90;99.90;;;;;;20937858;28;20319;-83
2022/07/27 18:51:24;;;;;;;12.60;1.63;;;24.70;99.90;;;;;;20915679;28;20475;-82
2022/07/27 19:01:25;;;;;;;4.07;1.33;;;24.30;99.90;;;;;;20915112;28;20052;-83
2022/07/27 19:11:26;;;;;;;;;;;24.10;99.90;;;;;;20914614;28;20032;-83
2022/07/27 19:21:27;;;;;;;8.50;1.40;;;23.80;99.90;;;;;;20928854;28;19940;-82
2022/07/27 19:31:28;;;;;;;4.50;1.50;;;23.10;99.90;;;;;;20966946;28;20271;-81
2022/07/27 19:41:29;;;;;;;8.52;1.95;;;22.90;99.90;;;;;;21008278;28;20112;-81
2022/07/27 19:51:30;;;;;;;3.22;1.90;;;22.40;99.90;;;;;;20943904;28;20049;-82
2022/07/27 20:01:31;;;;;;;4.33;1.73;;;22.00;99.90;;;;;;20926890;28;20036;-83
2022/07/27 20:11:32;;;;;;;2.25;1.90;;;22.00;99.90;;;;;;20909041;28;20551;-82
2022/07/27 20:21:35;;;;;;;3.13;1.90;;;21.90;99.90;;;;;;20925982;28;20029;-82
2022/07/27 20:31:37;;;;;;;4.07;2.08;;;21.90;99.90;;;;;;20910031;23;20053;-75
2022/07/27 20:41:38;;;;;;;2.70;1.75;;;21.90;99.90;;;;;;20898711;28;20045;-75
2022/07/27 20:51:40;;;;;;;5.43;1.80;;;21.60;99.90;;;;;;20866824;28;20694;-74
2022/07/27 21:01:41;;;;;;;2.72;2.00;;;21.50;99.90;;;;;;20892290;28;20044;-74
2022/07/27 21:11:42;;;;;;;3.33;2.10;;;21.50;99.90;;;;;;20843915;28;20033;-75
2022/07/27 21:21:43;;;;;;;11.67;2.80;;;21.40;99.90;;;;;;20837732;28;20025;-75
2022/07/27 21:31:45;;;;;;;13.87;2.47;;;21.10;99.90;;;;;;20781346;28;20037;-76
2022/07/27 21:41:46;;;;;;;3.58;2.08;;;21.00;99.90;;;;;;20789869;28;20496;-75
2022/07/27 21:51:47;;;;;;;7.90;2.50;;;20.80;99.90;;;;;;20819092;28;20030;-77
2022/07/27 22:01:48;;;;;;;4.07;2.53;;;20.50;99.90;;;;;;20840156;28;20483;-77
2022/07/27 22:11:49;;;;;;;6.10;2.03;;;20.30;99.90;;;;;;20903303;28;20087;-77
2022/07/27 22:21:50;;;;;;;6.20;2.07;;;20.40;99.90;;;;;;20833134;28;20026;-77
2022/07/27 22:31:54;;;;;;;6.37;2.40;;;20.30;99.90;;;;;;20898337;28;20033;-77
2022/07/27 22:41:55;;;;;;;5.03;2.22;;;20.40;99.90;;;;;;20883866;28;20025;-77
2022/07/27 22:51:55;;;;;;;4.23;1.90;;;20.00;99.90;;;;;;20832741;28;20040;-78
2022/07/27 23:01:56;;;;;;;2.30;2.00;;;19.70;99.90;;;;;;20828883;28;20029;-77
2022/07/27 23:11:57;;;;;;;5.50;2.10;;;19.30;99.90;;;;;;20819849;28;20067;-77
2022/07/27 23:21:58;;;;;;;4.70;2.20;;;19.10;99.90;;;;;;20829984;28;20030;-77
2022/07/27 23:31:59;;;;;;;6.83;2.23;;;18.90;99.90;;;;;;20828738;28;20029;-76
2022/07/27 23:42:00;;;;;;;2.50;1.67;;;18.60;99.90;;;;;;20827997;28;20032;-77
2022/07/27 23:52:01;;;;;;;3.13;1.80;;;18.80;99.90;;;;;;20809510;28;20033;-77
